Time;durP1;ratioP1;P1;durP2;ratioP2;P2;SDS_P1;SDS_P2;PMS_P1;PMS_P2;Temp;Humidity;BMP_temperature;BMP_pressure;BME280_temperature;BME280_humidity;BME280_pressure;Samples;Min_cycle;Max_cycle;Signal;HPM_P1;HPM_P2
2022/06/19 00:01:03;;;;;;;24.13;2.78;;;;;;;14.12;80.99;101227.41;2095974;28;20059;-66
2022/06/19 00:02:07;;;;;;;17.98;1.80;;;;;;;14.11;81.05;101225.63;2096877;28;39200;-67
2022/06/19 00:03:26;;;;;;;19.75;2.22;;;;;;;14.10;81.18;101215.81;2097183;28;20041;-67
2022/06/19 00:04:28;;;;;;;24.17;2.90;;;;;;;14.10;80.75;101204.16;2090977;28;26201;-68
2022/06/19 00:05:30;;;;;;;16.75;2.03;;;;;;;14.12;81.29;101192.41;2096707;28;20122;-66
2022/06/19 00:06:35;;;;;;;22.35;1.98;;;;;;;14.11;81.16;101181.69;2096720;28;22394;-65
2022/06/19 00:07:37;;;;;;;16.80;2.30;;;;;;;14.07;81.39;101183.59;2096504;28;20118;-67
2022/06/19 00:08:39;;;;;;;16.77;2.20;;;;;;;14.08;81.37;101189.84;2089088;28;20030;-67
2022/06/19 00:09:41;;;;;;;19.13;2.35;;;;;;;14.07;81.46;101186.28;2088145;28;20138;-67
2022/06/19 00:10:43;;;;;;;19.75;1.77;;;;;;;14.06;81.31;101184.53;2096570;28;24175;-68
2022/06/19 00:11:45;;;;;;;19.13;2.17;;;;;;;14.05;81.58;101180.09;2096413;28;39375;-66
2022/06/19 00:12:50;;;;;;;18.50;2.45;;;;;;;14.04;82.00;101178.31;2096343;28;20040;-68
2022/06/19 00:13:51;;;;;;;15.18;1.90;;;;;;;14.05;81.41;101169.31;2096301;28;20994;-67
2022/06/19 00:14:53;;;;;;;19.92;2.20;;;;;;;14.04;81.63;101161.28;2104714;28;20958;-69
2022/06/19 00:15:56;;;;;;;19.20;1.80;;;;;;;14.02;81.29;101158.63;2104379;28;25537;-67
2022/06/19 00:16:58;;;;;;;18.02;2.15;;;;;;;14.03;81.53;101165.81;2097245;28;20045;-66
2022/06/19 00:18:00;;;;;;;17.48;2.25;;;;;;;14.02;82.36;101155.94;2097287;28;20045;-67
2022/06/19 00:19:03;;;;;;;21.73;2.20;;;;;;;14.03;81.98;101155.03;2096222;28;38232;-68
2022/06/19 00:20:06;;;;;;;16.77;2.30;;;;;;;14.03;82.11;101155.03;2096098;28;31622;-67
2022/06/19 00:21:09;;;;;;;22.13;2.22;;;;;;;14.01;81.99;101147.91;2096375;28;20037;-66
2022/06/19 00:22:11;;;;;;;18.38;2.00;;;;;;;14.01;82.56;101147.91;2096233;28;29611;-65
2022/06/19 00:23:13;;;;;;;14.48;2.22;;;;;;;14.01;82.52;101140.72;2099935;28;20084;-67
2022/06/19 00:24:15;;;;;;;16.52;2.15;;;;;;;13.98;82.81;101132.78;2097320;28;25095;-69
2022/06/19 00:25:17;;;;;;;20.73;2.33;;;;;;;13.98;82.73;101129.16;2096447;28;20693;-67
2022/06/19 00:26:19;;;;;;;21.30;2.60;;;;;;;13.98;83.19;101129.16;2097425;28;20717;-67
2022/06/19 00:27:26;;;;;;;18.15;2.03;;;;;;;13.96;82.67;101126.53;2096630;28;20045;-66
2022/06/19 00:28:28;;;;;;;18.17;2.67;;;;;;;13.94;83.55;101136.47;2089027;28;20056;-68
2022/06/19 00:29:30;;;;;;;21.83;2.33;;;;;;;13.97;83.10;101119.34;2096121;28;25884;-68
2022/06/19 00:30:33;;;;;;;19.92;2.30;;;;;;;13.96;83.42;101126.53;2096530;28;23224;-66
2022/06/19 00:31:35;;;;;;;18.08;2.13;;;;;;;13.93;83.66;101122.13;2097079;28;22617;-66
2022/06/19 00:32:38;;;;;;;21.75;2.72;;;;;;;13.92;83.92;101124.88;2096791;28;24616;-69
2022/06/19 00:33:40;;;;;;;27.33;2.63;;;;;;;13.93;84.12;101121.28;2096996;28;24844;-67
2022/06/19 00:34:42;;;;;;;23.02;2.45;;;;;;;13.93;83.70;101126.66;2096405;28;22076;-67
2022/06/19 00:35:43;;;;;;;17.65;2.33;;;;;;;13.92;83.87;101127.56;2095792;28;38994;-68
2022/06/19 00:36:49;;;;;;;20.15;2.17;;;;;;;13.90;83.40;101122.22;2096756;28;28753;-67
2022/06/19 00:37:50;;;;;;;23.52;2.72;;;;;;;13.90;83.95;101121.38;2097042;28;27560;-69
2022/06/19 00:38:54;;;;;;;23.73;2.63;;;;;;;13.88;83.54;101124.09;2096350;28;23378;-67
2022/06/19 00:39:58;;;;;;;18.52;1.80;;;;;;;13.85;84.04;101116.13;2096022;28;28382;-67
2022/06/19 00:41:00;;;;;;;23.02;3.15;;;;;;;13.86;83.72;101115.22;2096008;28;28550;-68
2022/06/19 00:42:03;;;;;;;22.85;2.60;;;;;;;13.84;83.72;101110.81;2096446;28;33446;-67
2022/06/19 00:43:05;;;;;;;20.88;2.65;;;;;;;13.84;84.16;101118.91;2096444;28;27958;-66
2022/06/19 00:44:13;;;;;;;21.50;2.25;;;;;;;13.84;83.79;101116.19;2096608;28;27909;-67
2022/06/19 00:45:38;;;;;;;13.77;2.20;;;;;;;13.82;83.91;101118.94;2096776;28;20163;-67
2022/06/19 00:46:42;;;;;;;22.33;2.58;;;;;;;13.83;83.65;101114.44;2096394;28;27715;-67
2022/06/19 00:47:44;;;;;;;19.35;2.42;;;;;;;13.83;84.14;101118.00;2097128;28;21110;-67
2022/06/19 00:48:48;;;;;;;19.00;2.65;;;;;;;13.86;83.53;101120.59;2096914;28;38324;-67
2022/06/19 00:49:57;;;;;;;17.40;2.30;;;;;;;13.83;83.79;101130.56;2096205;28;37120;-66
2022/06/19 00:51:04;;;;;;;18.88;1.88;;;;;;;13.83;83.99;101131.44;2096985;28;20284;-67
2022/06/19 00:52:29;;;;;;;20.35;1.95;;;;;;;13.82;83.81;101132.41;2098389;28;20127;-68
2022/06/19 00:53:47;;;;;;;19.42;2.20;;;;;;;13.83;83.90;101136.84;2095414;28;33863;-67
2022/06/19 00:54:54;;;;;;;17.17;2.78;;;;;;;13.83;83.76;101133.28;2096954;28;20832;-68
2022/06/19 00:55:57;;;;;;;18.75;2.22;;;;;;;13.85;83.81;101139.47;2097012;28;20764;-68
2022/06/19 00:56:59;;;;;;;17.30;1.92;;;;;;;13.85;84.11;101142.16;2095782;28;37508;-68
2022/06/19 00:58:11;;;;;;;21.02;2.65;;;;;;;13.85;84.31;101139.47;2095824;28;24911;-68
2022/06/19 00:59:15;;;;;;;21.77;2.90;;;;;;;13.86;84.22;101141.25;2096879;28;22353;-68
2022/06/19 01:00:27;;;;;;;20.40;2.25;;;;;;;13.85;83.34;101148.41;2096518;28;24788;-68
2022/06/19 01:01:29;;;;;;;25.83;3.28;;;;;;;13.86;83.46;101136.75;2096448;28;30007;-68
2022/06/19 01:02:31;;;;;;;19.77;2.30;;;;;;;13.87;83.78;101138.50;2095360;28;40611;-68
2022/06/19 01:04:22;;;;;;;16.42;2.25;;;;;;;13.89;83.62;101147.41;2096044;28;21075;-66
2022/06/19 01:05:27;;;;;;;18.63;3.00;;;;;;;13.86;83.93;101144.81;2096742;28;27621;-67
2022/06/19 01:06:29;;;;;;;18.00;1.83;;;;;;;13.86;83.69;101146.63;2096356;28;21085;-67
2022/06/19 01:07:31;;;;;;;22.98;2.58;;;;;;;13.85;83.58;101145.72;2095284;28;20076;-65
2022/06/19 01:08:35;;;;;;;20.65;2.05;;;;;;;13.84;83.47;101138.59;2095969;28;34516;-68
2022/06/19 01:09:37;;;;;;;17.05;2.00;;;;;;;13.84;82.82;101141.28;2096190;28;25497;-67
2022/06/19 01:10:44;;;;;;;17.20;1.95;;;;;;;13.84;83.00;101137.72;2096644;28;25394;-68
2022/06/19 01:11:46;;;;;;;19.00;1.90;;;;;;;13.84;82.74;101129.66;2096648;28;22870;-67
2022/06/19 01:12:48;;;;;;;21.65;2.00;;;;;;;13.84;82.85;101133.22;2080725;28;25291;-67
2022/06/19 01:13:50;;;;;;;17.05;2.38;;;;;;;13.87;82.57;101137.59;2087377;28;21175;-66
2022/06/19 01:15:00;;;;;;;22.80;2.28;;;;;;;13.86;82.21;101128.66;2096389;28;22104;-67
2022/06/19 01:16:05;;;;;;;17.63;2.00;;;;;;;13.85;82.56;101123.31;2096341;28;20140;-63
2022/06/19 01:17:09;;;;;;;16.80;2.20;;;;;;;13.87;82.19;101126.84;2096552;28;20958;-66
2022/06/19 01:18:12;;;;;;;14.63;2.45;;;;;;;13.86;82.04;101128.66;2103013;28;26400;-66
2022/06/19 01:19:26;;;;;;;17.63;1.90;;;;;;;13.85;81.56;101134.97;2095976;28;26629;-66
2022/06/19 01:20:31;;;;;;;17.00;2.00;;;;;;;13.85;81.56;101131.41;2089499;28;29090;-67
2022/06/19 01:22:02;;;;;;;18.65;2.42;;;;;;;13.84;80.89;101135.91;2095855;28;20044;-66
2022/06/19 01:23:21;;;;;;;18.70;2.15;;;;;;;13.86;80.86;101135.88;2096680;28;21847;-66
2022/06/19 01:25:00;;;;;;;16.90;1.73;;;;;;;13.87;81.12;101127.75;2096152;28;37303;-67
2022/06/19 01:26:02;;;;;;;20.88;1.80;;;;;;;13.91;80.92;101131.22;2087148;28;21902;-64
2022/06/19 01:27:09;;;;;;;14.48;2.00;;;;;;;13.89;80.92;101108.81;2083478;28;37688;-68
2022/06/19 01:29:47;;;;;;;16.13;1.85;;;;;;;13.91;80.76;101093.53;2092220;28;22540;-68
2022/06/19 01:30:51;;;;;;;13.73;1.95;;;;;;;13.91;80.36;101086.31;2091690;28;32376;-68
2022/06/19 01:32:02;;;;;;;13.70;1.83;;;;;;;13.92;79.79;101087.19;2095227;28;36841;-66
2022/06/19 01:33:09;;;;;;;17.92;1.98;;;;;;;13.93;80.11;101086.28;2096128;28;21048;-70
2022/06/19 01:34:32;;;;;;;22.27;1.92;;;;;;;13.93;80.45;101067.44;2089595;28;22118;-67
2022/06/19 01:35:38;;;;;;;20.60;2.13;;;;;;;13.93;80.11;101068.31;2090767;28;36841;-67
2022/06/19 01:36:40;;;;;;;15.38;2.20;;;;;;;13.94;79.97;101069.19;2091236;28;21526;-68
2022/06/19 01:37:43;;;;;;;17.17;1.92;;;;;;;13.93;79.48;101060.22;2088027;28;20041;-65
2022/06/19 01:38:49;;;;;;;17.13;1.88;;;;;;;13.94;79.30;101047.63;2088032;28;27263;-65
2022/06/19 01:40:09;;;;;;;16.83;1.92;;;;;;;13.95;79.04;101054.78;2080215;28;30945;-68
2022/06/19 01:41:16;;;;;;;11.80;1.67;;;;;;;13.97;79.44;101049.38;2084363;28;29723;-68
2022/06/19 01:42:18;;;;;;;21.67;1.73;;;;;;;13.94;79.11;101050.34;2087354;28;30154;-68
2022/06/19 01:43:21;;;;;;;20.10;2.08;;;;;;;13.93;79.04;101059.34;2079819;28;27279;-68
2022/06/19 01:44:23;;;;;;;16.67;2.10;;;;;;;13.94;79.05;101061.09;2079894;28;20049;-68
2022/06/19 01:45:25;;;;;;;16.60;1.67;;;;;;;13.93;78.72;101067.44;2087196;28;38081;-67
2022/06/19 01:46:30;;;;;;;16.00;1.70;;;;;;;13.93;78.96;101062.06;2087318;28;24802;-67
2022/06/19 01:47:32;;;;;;;15.90;1.73;;;;;;;13.94;78.65;101050.34;2079876;28;20045;-68
2022/06/19 01:48:34;;;;;;;17.35;2.00;;;;;;;13.94;78.20;101048.53;2080061;28;28928;-68
2022/06/19 01:49:38;;;;;;;17.08;2.08;;;;;;;13.94;78.36;101048.53;2078988;28;33566;-67
2022/06/19 01:50:43;;;;;;;16.10;1.70;;;;;;;13.94;78.60;101035.09;2080054;28;20692;-68
2022/06/19 01:51:45;;;;;;;14.52;1.65;;;;;;;13.93;78.34;101038.69;2087386;28;21012;-68
2022/06/19 01:52:51;;;;;;;12.23;1.50;;;;;;;13.94;78.52;101031.50;2088031;28;20096;-67
2022/06/19 01:54:07;;;;;;;16.40;1.45;;;;;;;13.91;78.09;101026.25;2078748;28;26993;-66
2022/06/19 01:55:15;;;;;;;16.38;1.75;;;;;;;13.89;78.14;101028.97;2076236;28;20041;-65
2022/06/19 01:56:17;;;;;;;19.45;2.20;;;;;;;13.88;78.07;101027.22;2087912;28;21168;-67
2022/06/19 01:57:20;;;;;;;14.68;1.95;;;;;;;13.88;78.21;101026.34;2096353;28;23207;-66
2022/06/19 01:58:30;;;;;;;17.95;1.98;;;;;;;13.86;78.24;101015.63;2096356;28;20072;-66
2022/06/19 01:59:34;;;;;;;18.67;1.90;;;;;;;13.86;78.48;101012.94;2095327;28;37119;-67
2022/06/19 02:00:39;;;;;;;15.95;1.70;;;;;;;13.83;78.80;101007.66;2096034;28;20229;-66
2022/06/19 02:01:46;;;;;;;13.95;1.60;;;;;;;13.84;78.79;101012.09;2096285;28;30489;-68
2022/06/19 02:03:00;;;;;;;17.52;1.90;;;;;;;13.83;78.78;101014.84;2095342;28;38915;-68
2022/06/19 02:04:06;;;;;;;14.95;1.70;;;;;;;13.81;79.37;101020.28;2096005;28;20876;-68
2022/06/19 02:05:09;;;;;;;13.20;1.73;;;;;;;13.81;79.14;101016.72;2095983;28;20064;-68
2022/06/19 02:06:14;;;;;;;16.85;2.05;;;;;;;13.79;79.18;101023.97;2096073;28;31866;-67
2022/06/19 02:07:23;;;;;;;14.82;1.58;;;;;;;13.77;79.27;101013.25;2096942;28;20914;-68
2022/06/19 02:08:29;;;;;;;14.23;1.50;;;;;;;13.74;78.91;101008.84;2095951;28;20076;-67
2022/06/19 02:09:34;;;;;;;16.13;1.70;;;;;;;13.77;79.64;101007.00;2096076;28;21622;-68
2022/06/19 02:10:40;;;;;;;21.33;2.22;;;;;;;13.77;79.15;101001.63;2096452;28;20075;-68
2022/06/19 02:11:42;;;;;;;17.45;1.90;;;;;;;13.78;79.71;101001.53;2095445;28;25258;-67
2022/06/19 02:12:45;;;;;;;19.20;2.00;;;;;;;13.75;79.14;101002.53;2095466;28;29779;-67
2022/06/19 02:13:48;;;;;;;25.67;2.08;;;;;;;13.77;79.45;101007.00;2095764;28;20106;-67
2022/06/19 02:14:50;;;;;;;9.93;1.58;;;;;;;13.78;79.72;101008.75;2087375;28;38698;-65
2022/06/19 02:15:53;;;;;;;15.38;1.67;;;;;;;13.77;79.38;101010.56;2094923;28;35964;-67
2022/06/19 02:16:55;;;;;;;15.63;1.77;;;;;;;13.79;79.81;101010.53;2088807;28;24934;-67
2022/06/19 02:18:01;;;;;;;20.67;1.83;;;;;;;13.78;79.42;101011.44;2089562;28;21103;-67
2022/06/19 02:19:04;;;;;;;18.45;2.17;;;;;;;13.84;80.16;101019.31;2090257;28;20885;-66
2022/06/19 02:20:07;;;;;;;14.13;1.40;;;;;;;13.81;79.84;101016.72;2097665;28;20107;-65
2022/06/19 02:21:19;;;;;;;16.48;1.67;;;;;;;13.81;79.90;101024.78;2097923;28;21030;-66
2022/06/19 02:22:21;;;;;;;16.20;1.70;;;;;;;13.85;80.54;101031.81;2097006;28;28566;-67
2022/06/19 02:23:34;;;;;;;13.85;1.63;;;;;;;13.85;79.67;101037.19;2097069;28;20051;-67
2022/06/19 02:24:38;;;;;;;15.85;1.58;;;;;;;13.82;79.66;101035.50;2097175;28;29857;-67
2022/06/19 02:25:44;;;;;;;16.38;1.85;;;;;;;13.81;80.07;101052.56;2096833;28;23693;-67
2022/06/19 02:26:48;;;;;;;12.75;1.23;;;;;;;13.82;80.30;101051.66;2096541;28;24755;-64
2022/06/19 02:27:50;;;;;;;14.65;1.98;;;;;;;13.84;80.00;101057.00;2089160;28;29364;-69
2022/06/19 02:28:52;;;;;;;17.92;2.13;;;;;;;13.85;80.00;101058.72;2096408;28;32900;-67
2022/06/19 02:29:54;;;;;;;15.10;1.75;;;;;;;13.86;80.32;101065.88;2097248;28;29530;-65
2022/06/19 02:30:56;;;;;;;13.48;1.67;;;;;;;13.89;79.99;101076.53;2088928;28;24387;-67
2022/06/19 02:31:58;;;;;;;14.07;1.35;;;;;;;13.87;79.47;101070.31;2081155;28;20049;-66
2022/06/19 02:33:01;;;;;;;15.18;1.30;;;;;;;13.87;79.48;101068.53;2096774;28;27560;-67
2022/06/19 02:34:25;;;;;;;11.82;1.48;;;;;;;13.93;80.35;101081.75;2097565;28;20041;-69
2022/06/19 02:35:27;;;;;;;16.85;1.50;;;;;;;13.92;79.83;101081.81;2091924;28;21167;-68
2022/06/19 02:36:38;;;;;;;14.52;1.40;;;;;;;13.93;79.31;101079.06;2096587;28;28841;-68
2022/06/19 02:37:46;;;;;;;22.38;1.75;;;;;;;13.93;78.82;101086.28;2097160;28;23862;-67
2022/06/19 02:38:48;;;;;;;12.77;1.40;;;;;;;13.95;78.01;101092.47;2096342;28;28195;-67
2022/06/19 02:40:10;;;;;;;13.73;1.52;;;;;;;13.92;77.97;101089.88;2096863;28;28647;-67
2022/06/19 02:41:26;;;;;;;13.02;1.50;;;;;;;13.95;77.45;101087.09;2097191;28;20033;-67
2022/06/19 02:42:49;;;;;;;12.45;1.40;;;;;;;13.94;77.13;101085.31;2092439;28;20037;-66
2022/06/19 02:43:51;;;;;;;10.65;1.27;;;;;;;13.94;76.36;101079.94;2093045;28;20099;-67
2022/06/19 02:44:56;;;;;;;14.35;0.75;;;;;;;13.98;76.23;101078.94;2097024;28;33591;-67
2022/06/19 02:46:00;;;;;;;14.40;1.10;;;;;;;13.99;76.20;101072.59;2096534;28;20882;-67
2022/06/19 02:47:03;;;;;;;11.18;1.17;;;;;;;13.99;75.41;101072.59;2089310;28;25311;-67
2022/06/19 02:48:19;;;;;;;15.00;1.00;;;;;;;14.01;74.93;101075.22;2089009;28;26276;-66
2022/06/19 02:49:21;;;;;;;12.52;1.25;;;;;;;14.02;74.68;101060.84;2091059;28;30285;-67
2022/06/19 02:50:30;;;;;;;9.85;1.15;;;;;;;14.02;73.88;101061.72;2097015;28;25072;-67
2022/06/19 02:51:31;;;;;;;9.18;0.90;;;;;;;14.03;73.41;101058.13;2088161;28;28472;-68
2022/06/19 02:52:33;;;;;;;8.45;0.85;;;;;;;14.05;73.55;101058.94;2089278;28;20125;-66
2022/06/19 02:53:35;;;;;;;12.35;1.08;;;;;;;14.08;73.02;101044.47;2097503;28;27575;-69
2022/06/19 02:54:37;;;;;;;9.32;1.23;;;;;;;14.07;72.41;101046.28;2097459;28;26096;-67
2022/06/19 02:55:40;;;;;;;14.70;1.00;;;;;;;14.07;72.34;101038.22;2097310;28;25464;-67
2022/06/19 02:56:42;;;;;;;10.48;0.93;;;;;;;14.06;71.53;101028.38;2096277;28;27543;-67
2022/06/19 02:57:44;;;;;;;11.60;1.30;;;;;;;14.07;71.76;101021.19;2097246;28;34354;-67
2022/06/19 02:58:48;;;;;;;6.03;0.80;;;;;;;14.06;71.60;101006.81;2097165;28;32880;-67
2022/06/19 02:59:50;;;;;;;9.57;0.77;;;;;;;14.08;71.16;101004.94;2097281;28;26181;-68
2022/06/19 03:00:53;;;;;;;10.18;1.00;;;;;;;14.09;70.77;100998.66;2096682;28;29726;-67
2022/06/19 03:01:57;;;;;;;8.05;0.82;;;;;;;14.13;70.68;100997.59;2096899;28;20315;-67
2022/06/19 03:03:35;;;;;;;10.73;0.75;;;;;;;14.12;70.76;101011.09;2097528;28;20037;-69
2022/06/19 03:04:45;;;;;;;16.17;1.33;;;;;;;14.12;70.64;101008.41;2089754;28;39080;-68
2022/06/19 03:05:52;;;;;;;8.88;0.98;;;;;;;14.13;70.50;101008.34;2093490;28;22138;-68
2022/06/19 03:06:56;;;;;;;9.82;0.60;;;;;;;14.13;70.76;101016.44;2096764;28;20919;-69
2022/06/19 03:07:58;;;;;;;9.60;1.13;;;;;;;14.15;70.65;101013.69;2097199;28;25862;-66
2022/06/19 03:09:00;;;;;;;10.75;0.80;;;;;;;14.16;70.66;101009.19;2097488;28;24706;-68
2022/06/19 03:10:02;;;;;;;8.88;0.90;;;;;;;14.14;70.76;100998.50;2097014;28;26825;-68
2022/06/19 03:11:05;;;;;;;8.30;0.60;;;;;;;14.15;70.55;100996.66;2097144;28;20854;-68
2022/06/19 03:12:10;;;;;;;12.55;1.15;;;;;;;14.14;70.65;101001.19;2097692;28;23425;-69
2022/06/19 03:13:20;;;;;;;6.72;0.82;;;;;;;14.13;70.74;100986.81;2096684;28;29535;-68
2022/06/19 03:14:24;;;;;;;14.80;1.10;;;;;;;14.14;71.06;100985.03;2097459;28;20122;-68
2022/06/19 03:15:26;;;;;;;11.57;1.10;;;;;;;14.16;70.67;100990.31;2096465;28;29454;-68
2022/06/19 03:16:27;;;;;;;12.13;0.90;;;;;;;14.13;70.46;100988.63;2088351;28;28076;-67
2022/06/19 03:17:29;;;;;;;11.40;0.60;;;;;;;14.15;70.59;100991.28;2096787;28;25875;-67
2022/06/19 03:18:32;;;;;;;11.68;1.05;;;;;;;14.16;70.65;100982.25;2097309;28;25502;-67
2022/06/19 03:19:34;;;;;;;6.95;0.55;;;;;;;14.17;70.01;100984.03;2095838;28;32171;-66
2022/06/19 03:20:36;;;;;;;9.80;1.13;;;;;;;14.17;69.92;100978.63;2088569;28;37104;-68
2022/06/19 03:21:38;;;;;;;8.18;0.70;;;;;;;14.18;69.55;100977.72;2096671;28;23168;-68
2022/06/19 03:22:40;;;;;;;9.27;0.77;;;;;;;14.17;68.92;100976.81;2097292;28;20188;-67
2022/06/19 03:23:41;;;;;;;9.38;1.02;;;;;;;14.17;68.45;100975.94;2096955;28;29234;-67
2022/06/19 03:24:45;;;;;;;7.40;0.70;;;;;;;14.19;69.31;100958.78;2097512;28;20644;-67
2022/06/19 03:25:47;;;;;;;6.10;0.77;;;;;;;14.20;69.23;100962.38;2097338;28;20881;-69
2022/06/19 03:26:49;;;;;;;11.73;0.82;;;;;;;14.22;68.52;100979.34;2096737;28;22824;-68
2022/06/19 03:27:52;;;;;;;9.40;0.63;;;;;;;14.22;68.36;100966.75;2097321;28;22488;-68
2022/06/19 03:28:54;;;;;;;9.25;0.73;;;;;;;14.22;67.97;100964.06;2096419;28;24797;-67
2022/06/19 03:29:55;;;;;;;9.23;0.85;;;;;;;14.24;67.96;100966.69;2096225;28;34672;-67
2022/06/19 03:30:57;;;;;;;19.20;1.45;;;;;;;14.25;68.25;100958.56;2097335;28;20041;-67
2022/06/19 03:32:02;;;;;;;10.48;0.98;;;;;;;14.25;68.35;100955.00;2096281;28;23527;-68
2022/06/19 03:33:04;;;;;;;9.90;0.80;;;;;;;14.28;68.64;100952.16;2088858;28;23270;-68
2022/06/19 03:34:06;;;;;;;12.35;1.50;;;;;;;14.29;69.05;100953.94;2097194;28;20080;-68
2022/06/19 03:35:11;;;;;;;15.85;1.80;;;;;;;14.28;69.58;100955.75;2096999;28;25698;-68
2022/06/19 03:36:13;;;;;;;12.60;1.25;;;;;;;14.31;70.00;100963.69;2097109;28;20084;-65
2022/06/19 03:37:15;;;;;;;9.15;1.08;;;;;;;14.32;70.30;100964.59;2097840;28;20084;-68
2022/06/19 03:38:17;;;;;;;9.50;1.08;;;;;;;14.34;70.50;100965.41;2096978;28;30068;-68
2022/06/19 03:39:19;;;;;;;9.85;0.75;;;;;;;14.32;70.44;100956.53;2096413;28;20939;-67
2022/06/19 03:40:21;;;;;;;10.50;1.20;;;;;;;14.34;71.16;100951.94;2095689;28;21325;-68
2022/06/19 03:41:23;;;;;;;9.82;0.95;;;;;;;14.32;71.47;100954.69;2097103;28;21299;-68
2022/06/19 03:42:25;;;;;;;9.18;1.00;;;;;;;14.30;72.23;100921.56;2097452;28;20899;-69
2022/06/19 03:43:33;;;;;;;8.80;1.17;;;;;;;14.30;71.94;100921.56;2097315;28;20896;-68
2022/06/19 03:44:35;;;;;;;11.55;1.20;;;;;;;14.26;72.64;100921.72;2097553;28;20821;-67
2022/06/19 03:45:37;;;;;;;17.45;1.25;;;;;;;14.26;73.22;100913.66;2097133;28;26677;-68
2022/06/19 03:46:40;;;;;;;15.13;1.58;;;;;;;14.27;73.17;100920.81;2096363;28;22815;-68
2022/06/19 03:47:43;;;;;;;13.65;1.20;;;;;;;14.25;73.59;100926.25;2096502;28;23022;-67
2022/06/19 03:48:50;;;;;;;12.93;1.27;;;;;;;14.30;73.86;100926.94;2096681;28;21310;-69
2022/06/19 03:50:01;;;;;;;14.98;1.67;;;;;;;14.27;74.47;100932.44;2096598;28;26017;-68
2022/06/19 03:51:03;;;;;;;10.75;1.52;;;;;;;14.28;74.75;100927.94;2087623;28;26834;-69
2022/06/19 03:52:08;;;;;;;9.85;1.17;;;;;;;14.29;75.20;100938.66;2094407;28;20117;-67
2022/06/19 03:53:10;;;;;;;13.73;1.52;;;;;;;14.28;75.15;100944.09;2097120;28;20114;-68
2022/06/19 03:54:11;;;;;;;11.48;1.35;;;;;;;14.27;75.39;100945.91;2096220;28;40861;-68
2022/06/19 03:55:14;;;;;;;15.45;1.20;;;;;;;14.29;75.28;100956.63;2096715;28;20037;-68
2022/06/19 03:56:20;;;;;;;10.82;1.38;;;;;;;14.31;75.75;100965.53;2096266;28;37333;-68
2022/06/19 03:57:22;;;;;;;12.93;1.48;;;;;;;14.32;75.61;100983.47;2104823;28;28297;-67
2022/06/19 03:58:45;;;;;;;14.07;1.33;;;;;;;14.32;76.33;101000.47;2104703;28;20029;-68
2022/06/19 03:59:48;;;;;;;11.07;1.58;;;;;;;14.35;76.70;101007.56;2088080;28;33980;-67
2022/06/19 04:00:50;;;;;;;14.10;1.42;;;;;;;14.35;76.68;101010.25;2083448;28;20040;-68
2022/06/19 04:01:52;;;;;;;12.68;1.65;;;;;;;14.36;76.76;101005.75;2088331;28;20084;-65
2022/06/19 04:02:54;;;;;;;14.90;1.13;;;;;;;14.41;77.15;101014.53;2087903;28;36357;-67
2022/06/19 04:03:56;;;;;;;14.30;1.40;;;;;;;14.37;77.12;100999.44;2088816;28;22757;-68
2022/06/19 04:04:58;;;;;;;9.90;1.20;;;;;;;14.36;77.50;100993.16;2088082;28;29883;-68
2022/06/19 04:06:00;;;;;;;13.93;1.50;;;;;;;14.38;77.66;100990.41;2095323;28;25647;-68
2022/06/19 04:07:05;;;;;;;10.20;1.02;;;;;;;14.36;78.15;100981.53;2097250;28;20045;-67
2022/06/19 04:08:07;;;;;;;13.43;1.48;;;;;;;14.37;77.63;100992.22;2097109;28;26416;-69
2022/06/19 04:09:15;;;;;;;10.63;1.25;;;;;;;14.36;77.85;100990.47;2096556;28;27766;-67
2022/06/19 04:10:19;;;;;;;14.75;1.45;;;;;;;14.33;78.48;100985.19;2096867;28;20045;-68
2022/06/19 04:11:30;;;;;;;13.13;1.20;;;;;;;14.33;78.00;101012.13;2089801;28;27246;-67
2022/06/19 04:12:32;;;;;;;14.05;1.48;;;;;;;14.36;77.74;101009.34;2089756;28;26159;-67
2022/06/19 04:13:34;;;;;;;14.77;1.70;;;;;;;14.35;77.76;101015.63;2096096;28;21860;-67
2022/06/19 04:14:36;;;;;;;13.02;0.82;;;;;;;14.37;77.71;101029.94;2095934;28;40862;-67
2022/06/19 04:15:39;;;;;;;16.40;1.60;;;;;;;14.39;77.88;101027.19;2096410;28;20033;-68
2022/06/19 04:16:44;;;;;;;15.13;1.30;;;;;;;14.44;77.64;101027.88;2097105;28;26290;-67
2022/06/19 04:17:45;;;;;;;15.05;1.80;;;;;;;14.49;77.32;101029.47;2096290;28;23184;-67
2022/06/19 04:18:53;;;;;;;14.25;1.75;;;;;;;14.52;77.36;101028.50;2095951;28;25787;-68
2022/06/19 04:19:56;;;;;;;16.63;1.75;;;;;;;14.58;77.62;101022.03;2097174;28;30992;-68
2022/06/19 04:21:00;;;;;;;12.18;1.33;;;;;;;14.60;77.24;101020.13;2097007;28;20033;-67
2022/06/19 04:22:03;;;;;;;13.02;1.00;;;;;;;14.61;77.68;101019.22;2096395;28;20052;-66
2022/06/19 04:23:09;;;;;;;14.15;1.48;;;;;;;14.68;77.40;101020.72;2097541;28;20149;-68
2022/06/19 04:24:15;;;;;;;14.88;1.35;;;;;;;14.74;77.33;101012.41;2096537;28;20048;-68
2022/06/19 04:25:17;;;;;;;15.98;1.65;;;;;;;14.73;77.30;101005.22;2096120;28;32505;-65
2022/06/19 04:26:19;;;;;;;18.30;2.03;;;;;;;14.70;77.44;101005.38;2096484;28;33597;-66
2022/06/19 04:27:23;;;;;;;14.20;1.52;;;;;;;14.74;77.12;101009.69;2097332;28;20037;-67
2022/06/19 04:28:25;;;;;;;14.13;1.08;;;;;;;14.74;77.10;101001.63;2096517;28;29025;-67
2022/06/19 04:29:27;;;;;;;17.85;1.70;;;;;;;14.77;76.79;100996.13;2096980;28;26004;-67
2022/06/19 04:30:29;;;;;;;18.98;2.30;;;;;;;14.77;76.65;101000.59;2096582;28;21338;-68
2022/06/19 04:31:32;;;;;;;15.15;1.77;;;;;;;14.72;76.79;101000.81;2104184;28;31380;-67
2022/06/19 04:32:36;;;;;;;13.52;1.05;;;;;;;14.72;76.16;101005.31;2104482;28;20094;-68
2022/06/19 04:33:39;;;;;;;12.27;1.60;;;;;;;14.74;76.32;101015.09;2095969;28;39970;-68
2022/06/19 04:34:41;;;;;;;14.18;1.70;;;;;;;14.70;76.02;101006.25;2097071;28;20075;-66
2022/06/19 04:35:43;;;;;;;16.60;1.67;;;;;;;14.72;76.26;101016.97;2096833;28;30733;-68
2022/06/19 04:36:47;;;;;;;12.50;1.50;;;;;;;14.76;75.98;101015.91;2096850;28;24137;-67
2022/06/19 04:37:49;;;;;;;15.77;1.35;;;;;;;14.77;75.90;101027.56;2096569;28;30940;-68
2022/06/19 04:38:54;;;;;;;15.35;2.05;;;;;;;14.78;75.96;101032.88;2096016;28;23693;-69
2022/06/19 04:39:56;;;;;;;16.98;2.60;;;;;;;14.80;76.16;101036.41;2096738;28;32310;-67
2022/06/19 04:40:59;;;;;;;14.23;1.63;;;;;;;14.80;75.97;101049.88;2096535;28;27568;-68
2022/06/19 04:42:02;;;;;;;17.02;1.70;;;;;;;14.79;75.95;101056.22;2097514;28;20119;-67
2022/06/19 04:43:04;;;;;;;12.85;1.40;;;;;;;14.81;75.21;101066.94;2096674;28;25692;-67
2022/06/19 04:44:14;;;;;;;13.73;1.30;;;;;;;14.78;75.29;101062.53;2096314;28;27052;-68
2022/06/19 04:45:18;;;;;;;11.82;1.27;;;;;;;14.86;75.12;101070.34;2096419;28;26532;-68
2022/06/19 04:46:20;;;;;;;12.23;1.35;;;;;;;14.88;74.92;101072.03;2097161;28;26392;-68
2022/06/19 04:47:22;;;;;;;14.88;1.60;;;;;;;14.87;74.56;101072.97;2096231;28;36361;-67
2022/06/19 04:48:27;;;;;;;14.70;1.92;;;;;;;14.85;74.35;101082.94;2096869;28;21004;-69
2022/06/19 04:49:28;;;;;;;12.45;1.25;;;;;;;14.87;74.55;101077.50;2096832;28;24101;-68
2022/06/19 04:50:30;;;;;;;15.65;2.25;;;;;;;14.84;74.41;101069.50;2096386;28;27738;-68
2022/06/19 04:51:32;;;;;;;13.77;1.20;;;;;;;14.79;74.73;101067.00;2096237;28;26503;-68
2022/06/19 04:52:37;;;;;;;15.50;1.15;;;;;;;14.76;74.70;101060.84;2097044;28;20893;-68
2022/06/19 04:53:39;;;;;;;13.77;1.40;;;;;;;14.73;75.13;101052.88;2095753;28;27379;-69
2022/06/19 04:54:42;;;;;;;13.32;1.63;;;;;;;14.71;74.78;101044.84;2096255;28;26873;-70
2022/06/19 04:55:48;;;;;;;13.50;1.20;;;;;;;14.72;74.64;101043.06;2103414;28;29446;-68
2022/06/19 04:56:52;;;;;;;10.68;0.93;;;;;;;14.54;74.56;101021.22;2097182;28;20758;-68
2022/06/19 04:58:03;;;;;;;13.10;1.40;;;;;;;14.54;75.02;101009.56;2096023;28;37619;-68
2022/06/19 04:59:07;;;;;;;14.07;1.48;;;;;;;14.44;74.00;101004.50;2097228;28;20037;-68
2022/06/19 05:00:16;;;;;;;14.43;1.23;;;;;;;14.36;72.61;100987.78;2096458;28;20033;-69
2022/06/19 05:01:29;;;;;;;16.05;1.23;;;;;;;14.28;71.89;101004.25;2096458;28;20922;-67
2022/06/19 05:02:32;;;;;;;12.55;1.23;;;;;;;14.26;71.40;101026.75;2096516;28;20830;-68